Mac Dill Air Force Base
KMCF : now visible

Airfield :











YOU CAN JOIN US ON...

 
LOGIN :

Register | Disclaimer

   EN    FR    IT 

 









Legend :    VFR   Marginal VFR   IFR   Intensive IFR   Very Intensive IFR
Visi :
Ceiling :
>= 8 km
>= 3000ft
5 to 8 km
1000 to 3000 ft
1500m to 5 km
500 to 1000 ft
800 to 1500m
200 to 500 ft
< 800m
< 200 ft
Symbols :   Thunderstorms  Fog  Heavy snow  Heavy precipitations  Wind > 20 kt






- Airport Elevation : 14 ft


KMCF - Mac Dill Air Force Base

CURRENT METAR :
  • 231456Z AUTO 01005KT 10SM OVC009 08/06 A3015 RMK AO2 SLP213 60000 T00790059 51010 FZRANO VISNO RWY23 $

EXPIRED METARs :
  • 231431Z AUTO 01006KT 10SM OVC010 08/06 A3015 RMK AO2 SLP213 FZRANO VISNO RWY23 $
  • 231356Z AUTO 01005KT 10SM OVC009 08/06 A3015 RMK AO2 SLP213 T00760059 FZRANO VISNO RWY23 $
  • 231319Z AUTO 03006KT 10SM OVC010 08/06 A3014 RMK AO2 SLP209 FZRANO VISNO RWY23 $
  • 231301Z AUTO 02005KT 10SM OVC011 08/06 A3014 RMK AO2 CIG 010 RWY23 SLP209 FZRANO VISNO RWY23 $
  • 231231Z AUTO 02006KT 10SM SCT006 OVC011 07/06 A3014 RMK AO2 DZE1157DZB05E21 CIG 006V011 CIG 006 RWY23 PRESRR SLP209 FZRANO VISNO RWY23 $
  • 231221Z AUTO 03006KT 10SM BKN006 OVC011 07/06 A3012 RMK AO2 DZE1157DZB05E21 BKN V OVC SLP202 FZRANO VISNO RWY23 $

TAF AMD TAF KMCF
Valid from the 23 at 14:00 until the 24 at 15:00 UTC


231415Z 2314/2415 VRB06KT 9999 BKN009 BKN015 OVC050 QNH3010INS
BECMG 2315/2316 VRB06KT 9999 FEW005 SCT015 BKN050 QNH3011INS
BECMG 2316/2317 30009KT 9999 FEW040 QNH3006INS TX16/2321Z TN06/2412Z
KZMA FIR / North America



MET'MAP, your aeronautical weather chart ! - Copyright ORBIFLY December 2007 - Disclaimer

ORBIFLY MET'MAP TEAM :

Programming & Development : Alexandra Zaïnal
Concept & original design : Baudouin d'Aumeries
Assistance for programming : Marc-Olivier Méhu
Technical & hardware support : Manuel Goepfert

Contact : metmap@orbifly.com




SOURCES & CREDITS :

   NOAA       Earth
Advisory